createdAt,value
2019-04-28T00:01:15.454Z,3.67
2019-04-28T00:03:48.141Z,3.20
2019-04-28T00:06:18.872Z,4.00
2019-04-28T00:08:51.630Z,3.67
2019-04-28T00:11:22.091Z,4.33
2019-04-28T00:13:53.600Z,4.17
2019-04-28T00:16:24.470Z,4.03
2019-04-28T00:19:03.145Z,3.53
2019-04-28T00:21:35.524Z,3.33
2019-04-28T00:24:27.186Z,3.13
2019-04-28T00:27:01.845Z,4.53
2019-04-28T00:29:53.960Z,3.77
2019-04-28T00:32:24.532Z,3.70
2019-04-28T00:34:55.222Z,3.27
2019-04-28T00:37:29.661Z,3.77
2019-04-28T00:40:01.008Z,3.40
2019-04-28T00:42:33.904Z,3.63
2019-04-28T00:45:05.968Z,3.63
2019-04-28T00:47:37.815Z,2.77
2019-04-28T00:50:11.661Z,3.77
2019-04-28T00:52:42.002Z,3.03
2019-04-28T00:55:12.640Z,3.53
2019-04-28T00:57:44.260Z,4.33
2019-04-28T01:00:24.608Z,3.27
2019-04-28T01:02:56.255Z,3.70
2019-04-28T01:05:26.913Z,3.50
2019-04-28T01:08:01.190Z,3.53
2019-04-28T01:10:32.214Z,3.40
2019-04-28T01:13:06.666Z,3.37
2019-04-28T01:15:41.771Z,3.57
2019-04-28T01:18:16.737Z,3.43
2019-04-28T01:20:47.426Z,3.43
2019-04-28T01:23:20.347Z,4.53
2019-04-28T01:25:54.186Z,3.73
2019-04-28T01:28:36.988Z,4.20
2019-04-28T01:31:12.056Z,3.60
2019-04-28T01:34:01.658Z,3.17
2019-04-28T01:36:43.255Z,3.70
2019-04-28T01:39:13.913Z,3.07
2019-04-28T01:41:44.740Z,3.43
2019-04-28T01:44:15.369Z,3.27
2019-04-28T01:46:45.928Z,4.10
2019-04-28T01:49:16.524Z,3.43
2019-04-28T01:51:57.289Z,3.23
2019-04-28T01:54:27.966Z,3.50
2019-04-28T01:57:01.102Z,3.77
2019-04-28T01:59:31.057Z,3.83
2019-04-28T02:02:02.800Z,3.77
2019-04-28T02:04:33.527Z,4.73
2019-04-28T02:07:04.321Z,4.57
2019-04-28T02:09:34.882Z,3.50
2019-04-28T02:12:05.950Z,3.60
2019-04-28T02:14:49.970Z,4.23
2019-04-28T02:17:20.879Z,3.70
2019-04-28T02:19:56.699Z,3.73
2019-04-28T02:22:29.922Z,4.23
2019-04-28T02:25:12.417Z,3.87
2019-04-28T02:27:42.984Z,3.90
2019-04-28T02:30:13.675Z,3.63
2019-04-28T02:32:51.861Z,4.20
2019-04-28T02:35:22.033Z,4.27
2019-04-28T02:38:08.319Z,3.73
2019-04-28T02:40:40.613Z,4.13
2019-04-28T02:43:11.677Z,3.57
2019-04-28T02:45:42.462Z,4.27
2019-04-28T02:48:24.676Z,3.60
2019-04-28T02:51:10.802Z,3.47
2019-04-28T02:53:41.671Z,4.73
2019-04-28T02:56:17.713Z,4.13
2019-04-28T02:58:50.847Z,4.07
2019-04-28T03:01:26.147Z,3.73
2019-04-28T03:03:57.161Z,3.50
2019-04-28T03:06:30.453Z,3.57
2019-04-28T03:09:10.422Z,3.60
2019-04-28T03:11:43.132Z,3.60
2019-04-28T03:14:13.885Z,3.90
2019-04-28T03:16:44.542Z,3.87
2019-04-28T03:19:15.212Z,3.53
2019-04-28T03:21:45.948Z,4.13
2019-04-28T03:24:16.540Z,4.27
2019-04-28T03:26:53.047Z,4.07
2019-04-28T03:29:25.303Z,3.17
2019-04-28T03:32:31.115Z,3.33
2019-04-28T03:34:53.808Z,3.63
2019-04-28T03:37:24.216Z,4.00
2019-04-28T03:39:55.142Z,3.93
2019-04-28T03:42:31.439Z,4.33
2019-04-28T03:45:03.789Z,4.00
2019-04-28T03:47:34.611Z,3.97
2019-04-28T03:50:06.277Z,3.60
2019-04-28T03:52:36.971Z,3.23
2019-04-28T03:55:07.643Z,3.93
2019-04-28T03:58:05.393Z,3.60
2019-04-28T04:00:36.092Z,3.37
2019-04-28T04:03:06.797Z,3.37
2019-04-28T04:05:37.429Z,2.70
2019-04-28T04:08:10.679Z,3.30
2019-04-28T04:10:44.980Z,3.03
2019-04-28T04:13:33.590Z,3.77
2019-04-28T04:16:10.452Z,3.23
2019-04-28T04:18:42.884Z,3.33
2019-04-28T04:21:24.810Z,3.00
2019-04-28T04:23:56.645Z,3.20
2019-04-28T04:26:27.334Z,3.93
2019-04-28T04:29:03.338Z,3.53
2019-04-28T04:31:35.039Z,3.33
2019-04-28T04:34:05.692Z,3.10
2019-04-28T04:36:36.380Z,2.93
2019-04-28T04:39:11.005Z,2.97
2019-04-28T04:41:43.993Z,3.63
2019-04-28T04:44:14.683Z,3.90
2019-04-28T04:46:45.257Z,3.30
2019-04-28T04:49:16.980Z,3.40
2019-04-28T04:51:47.546Z,3.27
2019-04-28T04:54:25.834Z,2.97
2019-04-28T04:56:56.405Z,2.80
2019-04-28T04:59:30.066Z,2.93
2019-04-28T05:02:26.676Z,3.50
2019-04-28T05:04:50.542Z,3.00
2019-04-28T05:07:20.756Z,3.20
2019-04-28T05:09:51.431Z,2.60
2019-04-28T05:12:22.027Z,2.73
2019-04-28T05:14:52.666Z,2.67
2019-04-28T05:17:25.370Z,2.80
2019-04-28T05:19:56.064Z,3.27
2019-04-28T05:22:29.992Z,2.93
2019-04-28T05:25:02.330Z,3.27
2019-04-28T05:27:54.587Z,2.90
2019-04-28T05:30:27.091Z,3.57
2019-04-28T05:32:57.685Z,2.80
2019-04-28T05:35:29.443Z,3.07
2019-04-28T05:38:00.152Z,2.50
2019-04-28T05:40:30.757Z,3.27
2019-04-28T05:43:01.426Z,2.80
2019-04-28T05:45:32.443Z,3.33
2019-04-28T05:48:04.157Z,2.90
2019-04-28T05:50:36.515Z,3.17
2019-04-28T05:53:10.860Z,2.73
2019-04-28T05:55:44.159Z,3.13
2019-04-28T05:58:19.850Z,2.60
2019-04-28T06:01:07.479Z,3.10
2019-04-28T06:03:38.328Z,3.00
2019-04-28T06:06:13.720Z,2.83
2019-04-28T06:08:51.722Z,3.47
2019-04-28T06:11:32.985Z,3.47
2019-04-28T06:14:04.737Z,2.60
2019-04-28T06:16:40.669Z,3.03
2019-04-28T06:19:17.274Z,3.07
2019-04-28T06:21:48.276Z,3.13
2019-04-28T06:24:18.859Z,3.27
2019-04-28T06:26:49.493Z,2.87
2019-04-28T06:29:20.218Z,2.50
2019-04-28T06:31:51.331Z,3.30
2019-04-28T06:34:25.159Z,3.00
2019-04-28T06:36:55.831Z,4.03
2019-04-28T06:39:26.461Z,3.33
2019-04-28T06:41:57.104Z,3.73
2019-04-28T06:44:28.916Z,3.33
2019-04-28T06:46:59.571Z,3.33
2019-04-28T06:49:30.239Z,2.97
2019-04-28T06:52:05.671Z,3.00
2019-04-28T06:54:36.450Z,2.70
2019-04-28T06:57:07.115Z,2.90
2019-04-28T06:59:37.845Z,3.07
2019-04-28T07:02:08.616Z,3.30
2019-04-28T07:05:02.672Z,3.50
2019-04-28T07:07:33.389Z,3.10
2019-04-28T07:10:06.593Z,5.00
2019-04-28T07:12:37.308Z,3.63
2019-04-28T07:15:14.232Z,3.20
2019-04-28T07:17:50.871Z,3.07
2019-04-28T07:20:32.060Z,3.37
2019-04-28T07:23:02.676Z,4.37
2019-04-28T07:25:34.946Z,5.40
2019-04-28T07:28:12.244Z,4.63
2019-04-28T07:30:43.032Z,4.10
2019-04-28T07:33:19.968Z,4.70
2019-04-28T07:35:50.567Z,4.43
2019-04-28T07:38:21.220Z,4.77
2019-04-28T07:40:59.713Z,4.83
2019-04-28T07:43:30.432Z,4.60
2019-04-28T07:46:01.167Z,4.47
2019-04-28T07:48:31.867Z,4.50
2019-04-28T07:51:06.697Z,4.60
2019-04-28T07:53:46.584Z,4.50
2019-04-28T07:56:34.720Z,4.30
2019-04-28T07:59:13.257Z,4.63
2019-04-28T08:01:46.822Z,4.43
2019-04-28T08:04:17.514Z,4.83
2019-04-28T08:06:52.137Z,4.13
2019-04-28T08:09:22.718Z,4.10
2019-04-28T08:11:53.595Z,4.70
2019-04-28T08:14:24.209Z,4.30
2019-04-28T08:16:54.945Z,4.60
2019-04-28T08:19:25.665Z,4.77
2019-04-28T08:21:56.436Z,4.80
2019-04-28T08:24:27.109Z,4.37
2019-04-28T08:26:59.156Z,4.80
2019-04-28T08:29:29.783Z,4.70
2019-04-28T08:32:19.758Z,3.90
2019-04-28T08:34:50.523Z,4.30
2019-04-28T08:37:27.046Z,3.67
2019-04-28T08:39:57.815Z,4.10
2019-04-28T08:42:28.518Z,4.10
2019-04-28T08:44:59.200Z,4.00
2019-04-28T08:47:33.096Z,4.00
2019-04-28T08:50:06.615Z,4.33
2019-04-28T08:52:38.297Z,3.40
2019-04-28T08:55:09.198Z,3.60
2019-04-28T08:57:44.486Z,3.60
2019-04-28T09:00:15.618Z,3.53
2019-04-28T09:02:46.349Z,3.40
2019-04-28T09:05:17.013Z,3.30
2019-04-28T09:07:47.735Z,2.80
2019-04-28T09:10:18.438Z,2.80
2019-04-28T09:12:49.119Z,2.87
2019-04-28T09:15:19.842Z,2.80
2019-04-28T09:17:50.612Z,2.93
2019-04-28T09:20:23.310Z,2.90
2019-04-28T09:22:55.555Z,2.80
2019-04-28T09:25:26.214Z,3.07
2019-04-28T09:27:57.899Z,3.00
2019-04-28T09:30:28.541Z,2.90
2019-04-28T09:32:59.308Z,2.73
2019-04-28T09:35:29.976Z,2.97
2019-04-28T09:38:00.645Z,2.70
2019-04-28T09:40:32.369Z,2.80
2019-04-28T09:43:07.463Z,2.70
2019-04-28T09:45:42.693Z,2.90
2019-04-28T09:48:13.279Z,2.43
2019-04-28T09:50:43.986Z,2.00
2019-04-28T09:53:16.697Z,2.97
2019-04-28T09:55:47.430Z,3.00
2019-04-28T09:58:19.125Z,3.00
2019-04-28T10:00:50.887Z,3.13
2019-04-28T10:03:21.630Z,2.40
2019-04-28T10:05:52.200Z,3.40
2019-04-28T10:08:27.298Z,3.20
2019-04-28T10:11:11.427Z,3.47
2019-04-28T10:13:42.027Z,4.33
2019-04-28T10:16:12.673Z,3.63
2019-04-28T10:18:54.209Z,3.70
2019-04-28T10:21:24.794Z,3.73
2019-04-28T10:23:55.566Z,3.50
2019-04-28T10:26:27.298Z,3.20
2019-04-28T10:28:58.005Z,3.10
2019-04-28T10:31:34.578Z,3.17
2019-04-28T10:34:06.075Z,2.70
2019-04-28T10:36:36.643Z,2.87
2019-04-28T10:39:22.368Z,2.50
2019-04-28T10:41:53.204Z,2.33
2019-04-28T10:44:24.860Z,2.90
2019-04-28T10:46:55.468Z,2.57
2019-04-28T10:49:26.065Z,2.80
2019-04-28T10:51:59.487Z,2.00
2019-04-28T10:54:33.402Z,2.00
2019-04-28T10:57:22.412Z,2.73
2019-04-28T10:59:55.324Z,2.60
2019-04-28T11:02:25.887Z,2.37
2019-04-28T11:05:08.252Z,2.63
2019-04-28T11:07:30.536Z,2.60
2019-04-28T11:10:02.966Z,2.60
2019-04-28T11:12:34.663Z,2.43
2019-04-28T11:15:07.612Z,2.47
2019-04-28T11:17:38.187Z,2.70
2019-04-28T11:20:08.825Z,2.80
2019-04-28T11:22:39.521Z,4.17
2019-04-28T11:25:12.655Z,3.00
2019-04-28T11:27:43.358Z,3.10
2019-04-28T11:30:14.824Z,3.03
2019-04-28T11:32:50.029Z,2.80
2019-04-28T11:35:23.369Z,2.67
2019-04-28T11:38:00.641Z,2.80
2019-04-28T11:40:31.387Z,2.17
2019-04-28T11:43:02.112Z,2.57
2019-04-28T11:45:36.116Z,1.50
2019-04-28T11:48:06.819Z,0.97
2019-04-28T11:50:37.480Z,1.07
2019-04-28T11:53:08.077Z,1.10
2019-04-28T11:55:38.993Z,0.90
2019-04-28T11:58:14.795Z,1.40
2019-04-28T12:00:45.596Z,1.60
2019-04-28T12:03:17.228Z,1.60
2019-04-28T12:05:53.301Z,1.90
2019-04-28T12:08:25.080Z,2.07
2019-04-28T12:11:08.646Z,2.63
2019-04-28T12:14:00.041Z,2.10
2019-04-28T12:16:35.250Z,2.30
2019-04-28T12:19:31.542Z,1.50
2019-04-28T12:22:07.577Z,1.20
2019-04-28T12:24:40.255Z,0.93
2019-04-28T12:27:12.988Z,1.00
2019-04-28T12:29:51.750Z,2.00
2019-04-28T12:32:33.256Z,2.20
2019-04-28T12:35:12.675Z,1.87
2019-04-28T12:37:58.802Z,1.80
2019-04-28T12:40:30.474Z,3.43
2019-04-28T12:43:01.091Z,2.30
2019-04-28T12:45:35.270Z,2.10
2019-04-28T12:48:05.651Z,2.40
2019-04-28T12:50:45.239Z,2.50
2019-04-28T12:53:16.088Z,2.30
2019-04-28T12:55:47.833Z,2.37
2019-04-28T12:58:29.600Z,2.10
2019-04-28T13:01:14.498Z,2.37
2019-04-28T13:03:58.692Z,2.23
2019-04-28T13:06:29.349Z,2.73
2019-04-28T13:09:00.031Z,2.83
2019-04-28T13:11:30.659Z,2.80
2019-04-28T13:14:01.406Z,2.93
2019-04-28T13:16:32.038Z,2.80
2019-04-28T13:19:02.791Z,2.77
2019-04-28T13:21:49.886Z,3.50
2019-04-28T13:24:27.086Z,4.10
2019-04-28T13:26:58.495Z,3.50
2019-04-28T13:29:30.324Z,3.83
2019-04-28T13:32:01.035Z,3.50
2019-04-28T13:34:33.605Z,3.80
2019-04-28T13:37:26.827Z,3.40
2019-04-28T13:40:11.464Z,3.50
2019-04-28T13:42:49.014Z,3.23
2019-04-28T13:45:21.440Z,2.80
2019-04-28T13:47:55.389Z,2.33
2019-04-28T13:50:34.682Z,3.20
2019-04-28T13:53:10.231Z,3.03
2019-04-28T13:55:50.009Z,2.70
2019-04-28T13:58:25.813Z,2.80
2019-04-28T14:01:03.997Z,2.43
2019-04-28T14:03:44.568Z,2.50
2019-04-28T14:06:27.538Z,2.60
2019-04-28T14:08:49.615Z,2.30
2019-04-28T14:11:20.505Z,2.60
2019-04-28T14:13:51.760Z,2.57
2019-04-28T14:16:22.738Z,2.50
2019-04-28T14:18:57.526Z,2.47
2019-04-28T14:21:34.259Z,2.73
2019-04-28T14:24:06.036Z,2.60
2019-04-28T14:26:40.035Z,2.83
2019-04-28T14:29:14.001Z,2.47
2019-04-28T14:31:52.036Z,1.93
2019-04-28T14:34:28.015Z,2.77
2019-04-28T14:36:58.675Z,3.40
2019-04-28T14:39:30.287Z,4.30
2019-04-28T14:42:01.018Z,4.10
2019-04-28T14:44:32.772Z,4.03
2019-04-28T14:47:03.444Z,4.23
2019-04-28T14:49:34.206Z,4.13
2019-04-28T14:52:10.938Z,4.10
2019-04-28T14:54:41.555Z,4.33
2019-04-28T14:57:13.172Z,4.67
2019-04-28T14:59:44.801Z,3.43
2019-04-28T15:02:22.863Z,3.57
2019-04-28T15:04:55.171Z,2.50
2019-04-28T15:07:40.267Z,2.80
2019-04-28T15:10:15.650Z,2.97
2019-04-28T15:12:46.321Z,3.07
2019-04-28T15:15:28.996Z,2.73
2019-04-28T15:17:59.700Z,2.67
2019-04-28T15:20:38.139Z,2.23
2019-04-28T15:23:11.057Z,2.10
2019-04-28T15:25:44.385Z,2.30
2019-04-28T15:28:15.208Z,2.27
2019-04-28T15:30:50.851Z,2.20
2019-04-28T15:33:21.589Z,2.87
2019-04-28T15:35:53.354Z,2.20
2019-04-28T15:38:24.302Z,2.00
2019-04-28T15:41:02.841Z,2.23
2019-04-28T15:43:34.775Z,2.10
2019-04-28T15:46:06.091Z,1.97
2019-04-28T15:48:36.650Z,1.87
2019-04-28T15:51:08.320Z,1.70
2019-04-28T15:53:43.705Z,1.60
2019-04-28T15:56:15.935Z,1.60
2019-04-28T15:58:47.618Z,1.50
2019-04-28T16:01:18.650Z,1.70
2019-04-28T16:03:50.365Z,1.60
2019-04-28T16:06:22.023Z,1.80
2019-04-28T16:08:52.645Z,2.03
2019-04-28T16:11:23.357Z,1.90
2019-04-28T16:13:56.096Z,2.33
2019-04-28T16:16:26.867Z,2.27
2019-04-28T16:18:57.471Z,1.90
2019-04-28T16:21:28.186Z,2.10
2019-04-28T16:23:58.967Z,2.40
2019-04-28T16:26:30.603Z,2.20
2019-04-28T16:29:05.444Z,2.33
2019-04-28T16:31:38.190Z,2.20
2019-04-28T16:34:09.773Z,2.10
2019-04-28T16:36:45.487Z,2.30
2019-04-28T16:39:20.358Z,2.20
2019-04-28T16:42:24.925Z,2.40
2019-04-28T16:45:14.174Z,2.70
2019-04-28T16:47:45.278Z,3.17
2019-04-28T16:50:17.055Z,3.00
2019-04-28T16:52:47.853Z,2.60
2019-04-28T16:55:23.146Z,2.40
2019-04-28T16:58:01.158Z,2.23
2019-04-28T17:00:51.894Z,2.23
2019-04-28T17:03:23.776Z,2.90
2019-04-28T17:05:54.526Z,2.80
2019-04-28T17:08:26.241Z,2.73
2019-04-28T17:11:01.373Z,2.83
2019-04-28T17:13:34.373Z,2.70
2019-04-28T17:16:07.138Z,3.00
2019-04-28T17:18:38.755Z,2.73
2019-04-28T17:21:09.369Z,2.50
2019-04-28T17:23:40.020Z,2.83
2019-04-28T17:26:12.328Z,2.60
2019-04-28T17:28:43.127Z,2.43
2019-04-28T17:31:13.969Z,2.10
2019-04-28T17:33:44.921Z,3.70
2019-04-28T17:36:15.705Z,2.50
2019-04-28T17:38:46.481Z,2.17
2019-04-28T17:41:17.185Z,2.50
2019-04-28T17:43:49.937Z,2.57
2019-04-28T17:46:21.568Z,2.43
2019-04-28T17:48:59.419Z,3.40
2019-04-28T17:51:30.288Z,2.93
2019-04-28T17:54:00.930Z,3.20
2019-04-28T17:56:38.834Z,2.60
2019-04-28T17:59:09.544Z,2.20
2019-04-28T18:01:43.951Z,2.60
2019-04-28T18:04:24.120Z,2.10
2019-04-28T18:06:56.460Z,2.60
2019-04-28T18:09:29.231Z,3.30
2019-04-28T18:12:01.287Z,3.20
2019-04-28T18:14:36.256Z,3.00
2019-04-28T18:17:25.175Z,3.03
2019-04-28T18:20:01.411Z,3.10
2019-04-28T18:22:32.554Z,3.40
2019-04-28T18:25:03.293Z,3.00
2019-04-28T18:27:38.156Z,2.70
2019-04-28T18:30:10.808Z,2.90
2019-04-28T18:32:56.384Z,3.50
2019-04-28T18:35:33.952Z,3.57
2019-04-28T18:38:13.580Z,3.93
2019-04-28T18:41:02.778Z,4.40
2019-04-28T18:43:45.370Z,4.20
2019-04-28T18:46:22.011Z,3.90
2019-04-28T18:48:55.172Z,4.20
2019-04-28T18:51:25.823Z,4.00
2019-04-28T18:53:58.446Z,4.37
2019-04-28T18:56:29.129Z,3.97
2019-04-28T18:59:00.839Z,3.80
2019-04-28T19:01:42.305Z,4.40
2019-04-28T19:04:13.601Z,3.60
2019-04-28T19:06:45.683Z,3.73
2019-04-28T19:09:20.743Z,4.00
2019-04-28T19:12:01.998Z,3.70
2019-04-28T19:14:34.348Z,3.27
2019-04-28T19:17:06.996Z,3.20
2019-04-28T19:19:41.225Z,3.50
2019-04-28T19:22:11.957Z,3.33
2019-04-28T19:24:42.715Z,3.50
2019-04-28T19:27:13.419Z,3.40
2019-04-28T19:29:44.043Z,3.53
2019-04-28T19:32:15.813Z,3.50
2019-04-28T19:34:50.614Z,3.60
2019-04-28T19:37:22.069Z,3.53
2019-04-28T19:39:52.636Z,3.73
2019-04-28T19:42:23.356Z,4.20
2019-04-28T19:44:54.345Z,4.13
2019-04-28T19:47:24.852Z,3.70
2019-04-28T19:49:55.530Z,4.10
2019-04-28T19:52:26.416Z,3.83
2019-04-28T19:55:04.807Z,3.40
2019-04-28T19:57:44.647Z,3.27
2019-04-28T20:00:26.049Z,3.93
2019-04-28T20:03:01.035Z,3.90
2019-04-28T20:05:32.992Z,4.20
2019-04-28T20:08:11.082Z,3.83
2019-04-28T20:10:42.401Z,3.27
2019-04-28T20:13:17.487Z,3.33
2019-04-28T20:15:48.916Z,3.43
2019-04-28T20:18:23.397Z,3.53
2019-04-28T20:21:07.743Z,3.20
2019-04-28T20:23:42.513Z,3.17
2019-04-28T20:26:13.169Z,3.07
2019-04-28T20:28:43.788Z,3.33
2019-04-28T20:31:21.236Z,2.90
2019-04-28T20:33:51.950Z,3.30
2019-04-28T20:36:32.933Z,3.33
2019-04-28T20:39:08.176Z,2.80
2019-04-28T20:41:47.690Z,3.03
2019-04-28T20:44:19.224Z,3.00
2019-04-28T20:46:50.899Z,3.10
2019-04-28T20:49:31.733Z,3.20
2019-04-28T20:52:03.256Z,3.10
2019-04-28T20:54:39.773Z,3.30
2019-04-28T20:57:10.425Z,3.63
2019-04-28T20:59:52.172Z,3.30
2019-04-28T21:02:22.781Z,3.53
2019-04-28T21:04:58.544Z,4.10
2019-04-28T21:07:29.138Z,3.80
2019-04-28T21:10:36.886Z,4.10
2019-04-28T21:12:57.720Z,4.63
2019-04-28T21:15:31.548Z,3.93
2019-04-28T21:18:05.621Z,4.13
2019-04-28T21:20:36.966Z,4.03
2019-04-28T21:23:07.624Z,4.00
2019-04-28T21:25:38.291Z,3.60
2019-04-28T21:28:20.738Z,3.43
2019-04-28T21:30:56.870Z,3.73
2019-04-28T21:36:23.368Z,3.77
2019-04-28T21:38:55.203Z,3.70
2019-04-28T21:41:32.335Z,4.30
2019-04-28T21:44:24.811Z,3.93
2019-04-28T21:47:00.218Z,3.67
2019-04-28T21:49:37.491Z,3.47
2019-04-28T21:52:24.123Z,3.40
2019-04-28T21:54:55.861Z,3.83
2019-04-28T21:57:26.422Z,3.80
2019-04-28T22:00:00.580Z,4.03
2019-04-28T22:02:46.205Z,3.80
2019-04-28T22:05:29.661Z,3.93
2019-04-28T22:07:49.365Z,3.33
2019-04-28T22:10:20.008Z,3.30
2019-04-28T22:12:50.678Z,3.40
2019-04-28T22:15:27.511Z,3.03
2019-04-28T22:17:58.093Z,3.43
2019-04-28T22:20:34.406Z,3.10
2019-04-28T22:23:21.580Z,2.90
2019-04-28T22:25:52.156Z,3.70
2019-04-28T22:28:22.747Z,2.80
2019-04-28T22:30:56.998Z,2.80
2019-04-28T22:33:27.673Z,2.70
2019-04-28T22:35:59.299Z,2.60
2019-04-28T22:38:30.007Z,2.83
2019-04-28T22:41:00.493Z,2.80
2019-04-28T22:43:31.151Z,3.20
2019-04-28T22:46:17.595Z,2.67
2019-04-28T22:48:55.502Z,3.20
2019-04-28T22:51:26.079Z,3.20
2019-04-28T22:54:00.265Z,2.73
2019-04-28T22:56:32.456Z,3.10
2019-04-28T22:59:24.049Z,3.00
2019-04-28T23:01:56.291Z,2.80
2019-04-28T23:04:28.616Z,3.10
2019-04-28T23:07:02.561Z,2.60
2019-04-28T23:09:33.192Z,2.60
2019-04-28T23:12:04.215Z,2.70
2019-04-28T23:14:34.989Z,2.70
2019-04-28T23:17:07.341Z,3.10
2019-04-28T23:19:42.925Z,3.93
2019-04-28T23:22:17.927Z,3.80
2019-04-28T23:24:48.512Z,3.93
2019-04-28T23:27:25.934Z,4.13
2019-04-28T23:29:56.488Z,3.60
2019-04-28T23:32:27.169Z,4.13
2019-04-28T23:34:59.850Z,4.07
2019-04-28T23:37:33.833Z,3.23
2019-04-28T23:40:05.778Z,3.80
2019-04-28T23:42:38.040Z,3.30
2019-04-28T23:45:11.993Z,3.30
2019-04-28T23:47:52.978Z,3.57
2019-04-28T23:50:32.158Z,3.47
2019-04-28T23:53:04.447Z,3.40
2019-04-28T23:55:35.024Z,3.63
2019-04-28T23:58:13.517Z,3.30
